Aviation Digital Data Service (ADDS)

Output produced by METARs form (0826 UTC 17 November 2018)
found at http://www.aviationweather.gov/metar/data/
 
EFMI 170820Z AUTO 27013KT 9999 BKN015 06/03 Q1029
EFMI 170750Z AUTO 26011KT 9999 BKN015 06/03 Q1028
EFMI 170720Z AUTO 26010KT 220V300 9999 BKN015 06/04 Q1028
EFMI 170650Z AUTO 26010KT 220V280 9999 BKN014 06/04 Q1028
EFMI 170620Z AUTO 26011KT 9999 BKN013 06/04 Q1028
EFMI 170550Z AUTO 26011KT 230V290 9999 BKN014 06/04 Q1029
EFMI 170520Z AUTO 25010KT 9999 BKN013 06/04 Q1029
EFMI 170450Z AUTO 26009KT 9999 BKN013 06/04 Q1029
EFMI 170420Z AUTO 25010KT 220V290 9999 BKN013 BKN071 06/04 Q1029
EFMI 170350Z AUTO 26012KT 9999 BKN012 07/04 Q1029
EFMI 170320Z AUTO 25011KT 220V280 9999 OVC013 07/04 Q1029
EFMI 170250Z AUTO 25010KT 210V280 9999 BKN013 07/04 Q1029
EFMI 170220Z AUTO 26010KT 230V300 9999 OVC013 07/04 Q1029
EFMI 170150Z AUTO 24009KT 210V270 9999 OVC013 07/04 Q1029
EFMI 170120Z AUTO 24011KT 220V290 9999 OVC013 07/04 Q1030
EFMI 170050Z AUTO 25011KT 220V290 9999 OVC014 07/04 Q1030
EFMI 170020Z AUTO 25011KT 210V280 9999 OVC014 07/04 Q1030
EFMI 162350Z AUTO 25010KT 220V280 9999 OVC015 07/04 Q1030
EFMI 162320Z AUTO 24009KT 210V280 9999 OVC016 07/04 Q1030
EFMI 162250Z AUTO 25009KT 220V280 9999 OVC017 07/04 Q1030
EFMI 162220Z AUTO 25010KT 210V280 9999 OVC017 07/04 Q1030
EFMI 162150Z AUTO 25011KT 220V290 9999 OVC017 07/04 Q1031
EFMI 162120Z AUTO 25010G20KT 220V290 9999 OVC018 07/04 Q1031
EFMI 162050Z AUTO 24009KT 210V280 9999 OVC018 07/04 Q1031
EFMI 162020Z AUTO 25008KT 220V280 9999 OVC019 08/04 Q1030
EFMI 161950Z AUTO 24010KT 210V280 9999 OVC021 08/04 Q1031
EFMI 161920Z AUTO 24008KT 190V270 9999 BKN023 08/05 Q1031
EFMI 161850Z AUTO 23007KT 180V270 CAVOK 07/05 Q1030
EFMI 161820Z AUTO 23007KT 190V280 CAVOK 08/05 Q1030
EFMI 161750Z AUTO 22006KT 150V260 CAVOK 08/05 Q1030
EFMI 161720Z AUTO 22007KT 160V270 CAVOK 08/05 Q1031
EFMI 161650Z AUTO 22007KT 190V260 CAVOK 08/05 Q1030
EFMI 161620Z AUTO 22008KT 170V260 CAVOK 08/06 Q1030
EFMI 161550Z AUTO 22007KT 170V280 CAVOK 08/06 Q1031
EFMI 161520Z AUTO 21007KT 170V280 9999 FEW013 BKN163 BKN221 08/06 Q1031
EFMI 161450Z AUTO 21007KT 130V270 9999 FEW014 BKN108 BKN171 08/06 Q1031
EFMI 161420Z AUTO 20007KT 140V260 9999 FEW011 BKN104 BKN211 08/06 Q1031
EFMI 161350Z AUTO 21006KT 150V250 9999 BKN011 BKN104 BKN191 08/06 Q1031
EFMI 161320Z AUTO 21007KT 150V250 9999 SCT010 BKN103 08/07 Q1031
EFMI 161250Z AUTO 20007KT 140V260 9999 BKN010 08/07 Q1031
EFMI 161220Z AUTO 21006KT 150V250 9999 BKN010 BKN085 09/07 Q1031
EFMI 161150Z AUTO 22005KT 160V270 9999 OVC008 09/07 Q1031
EFMI 161120Z AUTO 23005KT 170V270 9999 OVC006 09/08 Q1031
EFMI 161050Z AUTO 22007KT 170V270 9999 OVC005 09/08 Q1031
EFMI 161020Z AUTO 21007KT 170V260 8000 OVC005 08/08 Q1031
EFMI 160950Z AUTO 21007KT 170V250 6000 OVC005 08/08 Q1031
EFMI 160920Z AUTO 21007KT 150V270 5000 OVC005 08/07 Q1031
EFMI 160850Z AUTO 20006KT 120V260 4600 BR OVC005 08/07 Q1031
EFMI 160820Z AUTO 20005KT 130V260 4800 OVC005 08/07 Q1031
EFMI 160750Z AUTO 20005KT 150V260 7000 OVC005 08/07 Q1031
EFMI 160720Z AUTO 21005KT 150V260 4400 BR OVC005 08/07 Q1031
EFMI 160650Z AUTO 21006KT 130V280 4900 OVC005 08/07 Q1031
EFMI 160620Z AUTO 21006KT 180V260 3400 BR OVC005 08/07 Q1031
EFMI 160550Z AUTO 21006KT 160V260 5000 BR OVC005 08/07 Q1031
EFMI 160520Z AUTO 21004KT 150V260 9000 OVC005 08/07 Q1031
EFMI 160450Z AUTO 21005KT 160V280 6000 OVC006 08/07 Q1030
EFMI 160420Z AUTO 21006KT 150V250 7000 OVC006 08/07 Q1030
EFMI 160350Z AUTO 22007KT 170V280 5000 OVC006 08/07 Q1030
EFMI 160320Z AUTO 22006KT 180V270 6000 OVC006 08/07 Q1030
EFMI 160250Z AUTO 21006KT 160V250 5000 OVC005 08/07 Q1030
EFMI 160220Z AUTO 22007KT 180V270 3000 BR OVC005 08/07 Q1030
EFMI 160150Z AUTO 22006KT 170V280 5000 OVC005 08/07 Q1030
EFMI 160120Z AUTO 22006KT 150V260 9999 OVC006 08/06 Q1030
EFMI 160050Z AUTO 22006KT 150V270 9999 OVC006 08/06 Q1030
EFMI 160020Z AUTO 22006KT 140V270 9999 OVC006 07/06 Q1030
EFMI 152350Z AUTO 21006KT 130V270 9999 OVC007 07/06 Q1030
EFMI 152320Z AUTO 21005KT 170V280 6000 OVC007 07/06 Q1030
EFMI 152250Z AUTO 21006KT 160V250 9999 OVC008 07/06 Q1030
EFMI 152220Z AUTO 21007KT 150V260 9999 OVC008 07/06 Q1029
EFMI 152150Z AUTO 21006KT 170V250 9999 OVC008 07/06 Q1029
EFMI 152120Z AUTO 22006KT 180V260 9999 OVC008 07/06 Q1029
EFMI 152050Z AUTO 21007KT 160V270 9999 OVC008 07/06 Q1029